Time;durP1;ratioP1;P1;durP2;ratioP2;P2;SDS_P1;SDS_P2;PMS_P1;PMS_P2;Temp;Humidity;BMP_temperature;BMP_pressure;BME280_temperature;BME280_humidity;BME280_pressure;Samples;Min_cycle;Max_cycle;Signal;HPM_P1;HPM_P2
2023/06/14 00:02:23;;;;;;;53.90;12.50;;;;;;;;;;5040422;28;20044;-68
2023/06/14 00:04:52;;;;;;;49.55;12.82;;;;;;;;;;5039259;28;20077;-69
2023/06/14 00:07:23;;;;;;;45.85;12.20;;;;;;;;;;5042092;28;20712;-68
2023/06/14 00:09:50;;;;;;;81.40;14.05;;;;;;;;;;5041635;28;20453;-69
2023/06/14 00:12:17;;;;;;;43.80;11.02;;;;;;;;;;5042847;28;20103;-69
2023/06/14 00:14:43;;;;;;;49.13;11.35;;;;;;;;;;5042998;28;20558;-69
2023/06/14 00:17:10;;;;;;;54.75;11.77;;;;;;;;;;5042805;28;20042;-70
2023/06/14 00:19:37;;;;;;;43.92;10.40;;;;;;;;;;5038231;28;20510;-68
2023/06/14 00:22:03;;;;;;;33.75;11.15;;;;;;;;;;5039080;28;20037;-68
2023/06/14 00:24:30;;;;;;;42.90;10.98;;;;;;;;;;5036923;28;20042;-68
2023/06/14 00:26:57;;;;;;;44.17;10.98;;;;;;;;;;5041391;28;20048;-68
2023/06/14 00:29:23;;;;;;;50.88;11.70;;;;;;;;;;5041088;28;20060;-69
2023/06/14 00:31:50;;;;;;;33.45;10.48;;;;;;;;;;5040687;28;20075;-68
2023/06/14 00:34:17;;;;;;;41.90;12.23;;;;;;;;;;5021770;28;20051;-68
2023/06/14 00:36:44;;;;;;;37.45;10.43;;;;;;;;;;5038986;28;20041;-69
2023/06/14 00:39:13;;;;;;;47.38;10.65;;;;;;;;;;5041718;28;20033;-69
2023/06/14 00:41:39;;;;;;;62.97;12.38;;;;;;;;;;5041170;28;20237;-68
2023/06/14 00:44:06;;;;;;;34.22;10.40;;;;;;;;;;5042519;28;20055;-68
2023/06/14 00:46:33;;;;;;;37.58;10.98;;;;;;;;;;5018713;28;20065;-68
2023/06/14 00:49:00;;;;;;;52.47;12.27;;;;;;;;;;5021783;28;20044;-68
2023/06/14 00:51:27;;;;;;;48.42;11.20;;;;;;;;;;5024018;28;20068;-68
2023/06/14 00:53:54;;;;;;;41.83;11.93;;;;;;;;;;5038481;28;20400;-67
2023/06/14 00:56:23;;;;;;;32.92;10.00;;;;;;;;;;5036323;28;20045;-70
2023/06/14 00:58:50;;;;;;;51.95;11.98;;;;;;;;;;5022251;28;20052;-68
2023/06/14 01:01:17;;;;;;;46.15;11.65;;;;;;;;;;5022235;28;20049;-68
2023/06/14 01:03:45;;;;;;;45.00;12.10;;;;;;;;;;5041088;28;20079;-68
2023/06/14 01:06:26;;;;;;;41.88;9.70;;;;;;;;;;5026026;28;20061;-69
2023/06/14 01:08:56;;;;;;;44.40;10.15;;;;;;;;;;5006231;28;20085;-68
2023/06/14 01:11:27;;;;;;;49.55;10.63;;;;;;;;;;5021626;28;20049;-67
2023/06/14 01:13:55;;;;;;;55.78;12.73;;;;;;;;;;5023165;28;20052;-68
2023/06/14 01:16:22;;;;;;;39.30;11.57;;;;;;;;;;5032244;28;20075;-69
2023/06/14 01:18:51;;;;;;;42.65;10.68;;;;;;;;;;5023129;28;20091;-68
2023/06/14 01:21:25;;;;;;;38.95;10.30;;;;;;;;;;5025659;28;20053;-67
2023/06/14 01:23:55;;;;;;;65.00;13.13;;;;;;;;;;5039335;28;20045;-70
2023/06/14 01:26:25;;;;;;;36.22;10.88;;;;;;;;;;5026599;28;20069;-67
2023/06/14 01:28:58;;;;;;;50.67;11.73;;;;;;;;;;5039783;28;20064;-69
2023/06/14 01:31:25;;;;;;;58.30;12.45;;;;;;;;;;5045082;28;20073;-68
2023/06/14 01:33:53;;;;;;;35.45;11.52;;;;;;;;;;5047666;28;20055;-69
2023/06/14 01:36:19;;;;;;;44.00;10.73;;;;;;;;;;5046603;28;20039;-69
2023/06/14 01:38:50;;;;;;;58.25;11.32;;;;;;;;;;5039408;28;20046;-67
2023/06/14 01:41:19;;;;;;;37.92;11.10;;;;;;;;;;5022487;28;20132;-67
2023/06/14 01:43:46;;;;;;;35.72;10.70;;;;;;;;;;5024697;28;20041;-67
2023/06/14 01:46:14;;;;;;;35.70;11.18;;;;;;;;;;5033145;28;20414;-68
2023/06/14 01:48:41;;;;;;;36.92;9.68;;;;;;;;;;5025375;28;20053;-69
2023/06/14 01:51:08;;;;;;;46.42;12.07;;;;;;;;;;5036451;28;20510;-68
2023/06/14 01:53:34;;;;;;;80.50;13.95;;;;;;;;;;5046899;28;20049;-68
2023/06/14 01:56:01;;;;;;;37.47;11.50;;;;;;;;;;5040069;28;20506;-69
2023/06/14 01:58:31;;;;;;;44.72;11.85;;;;;;;;;;5046182;28;20057;-68
2023/06/14 02:01:00;;;;;;;231.97;24.00;;;;;;;;;;5089312;22;20060;-69
2023/06/14 02:03:27;;;;;;;39.30;10.93;;;;;;;;;;5047498;28;20037;-67
2023/06/14 02:05:55;;;;;;;49.10;12.43;;;;;;;;;;5063417;28;20037;-67
2023/06/14 02:08:23;;;;;;;46.30;11.82;;;;;;;;;;5055913;28;20106;-68
2023/06/14 02:10:50;;;;;;;71.00;13.63;;;;;;;;;;5064996;28;20040;-67
2023/06/14 02:13:16;;;;;;;54.78;12.23;;;;;;;;;;5051570;28;20049;-67
2023/06/14 02:15:43;;;;;;;51.05;11.68;;;;;;;;;;5048884;28;20041;-68
2023/06/14 02:18:11;;;;;;;37.03;9.70;;;;;;;;;;5067377;28;20040;-67
2023/06/14 02:20:38;;;;;;;88.60;14.52;;;;;;;;;;5062434;28;20044;-67
2023/06/14 02:23:05;;;;;;;28.30;10.00;;;;;;;;;;5063655;28;20041;-67
2023/06/14 02:25:31;;;;;;;45.95;12.05;;;;;;;;;;5061183;28;20058;-67
2023/06/14 02:27:58;;;;;;;49.53;11.50;;;;;;;;;;5045256;28;20037;-67
2023/06/14 02:30:25;;;;;;;24.58;9.48;;;;;;;;;;5045732;28;20092;-67
2023/06/14 02:32:54;;;;;;;40.75;10.82;;;;;;;;;;5063923;28;20064;-67
2023/06/14 02:35:22;;;;;;;56.03;12.52;;;;;;;;;;5050424;28;20048;-67
2023/06/14 02:37:48;;;;;;;48.25;11.82;;;;;;;;;;5065080;28;20044;-67
2023/06/14 02:40:15;;;;;;;35.88;9.93;;;;;;;;;;5066954;28;20048;-67
2023/06/14 02:42:42;;;;;;;73.45;12.90;;;;;;;;;;5068962;28;20036;-67
2023/06/14 02:45:09;;;;;;;47.25;10.13;;;;;;;;;;5047818;28;20124;-67
2023/06/14 02:47:35;;;;;;;88.70;13.95;;;;;;;;;;5054201;28;20102;-66
2023/06/14 02:50:02;;;;;;;43.28;11.60;;;;;;;;;;5062466;28;20048;-67
2023/06/14 02:52:29;;;;;;;50.55;10.65;;;;;;;;;;5046803;28;20379;-67
2023/06/14 02:54:56;;;;;;;29.30;9.30;;;;;;;;;;5066276;28;20471;-67
2023/06/14 02:57:23;;;;;;;82.65;13.18;;;;;;;;;;5060590;28;20067;-67
2023/06/14 02:59:50;;;;;;;53.65;12.10;;;;;;;;;;5054426;28;20056;-68
2023/06/14 03:02:17;;;;;;;49.17;11.18;;;;;;;;;;5065123;28;20144;-67
2023/06/14 03:04:44;;;;;;;60.97;12.77;;;;;;;;;;5045090;28;20490;-67
2023/06/14 03:07:19;;;;;;;53.17;11.32;;;;;;;;;;5066044;28;20041;-68
2023/06/14 03:09:48;;;;;;;60.75;11.95;;;;;;;;;;5045865;28;20098;-66
2023/06/14 03:12:15;;;;;;;56.38;11.60;;;;;;;;;;5047595;28;20048;-67
2023/06/14 03:14:45;;;;;;;111.80;15.90;;;;;;;;;;5060529;28;20052;-67
2023/06/14 03:17:13;;;;;;;46.63;11.68;;;;;;;;;;5043136;28;20524;-68
2023/06/14 03:19:41;;;;;;;50.13;11.63;;;;;;;;;;5066102;28;20101;-67
2023/06/14 03:22:08;;;;;;;26.38;10.50;;;;;;;;;;5042385;28;20433;-67
2023/06/14 03:24:37;;;;;;;56.58;11.43;;;;;;;;;;5047467;28;20036;-67
2023/06/14 03:27:09;;;;;;;63.83;12.18;;;;;;;;;;5044323;28;20076;-67
2023/06/14 03:29:39;;;;;;;55.85;11.80;;;;;;;;;;5039791;28;20052;-67
2023/06/14 03:32:07;;;;;;;45.88;10.50;;;;;;;;;;5044507;28;20063;-68
2023/06/14 03:34:39;;;;;;;38.53;10.82;;;;;;;;;;5044737;28;20105;-67
2023/06/14 03:37:08;;;;;;;39.40;9.80;;;;;;;;;;5068270;28;20445;-67
2023/06/14 03:39:35;;;;;;;49.53;11.23;;;;;;;;;;5042377;28;20045;-67
2023/06/14 03:42:02;;;;;;;52.40;10.07;;;;;;;;;;5044437;28;20454;-67
2023/06/14 03:44:30;;;;;;;66.10;11.45;;;;;;;;;;5042737;28;20051;-67
2023/06/14 03:46:58;;;;;;;38.53;9.88;;;;;;;;;;5052049;28;20056;-67
2023/06/14 03:49:26;;;;;;;51.35;10.27;;;;;;;;;;5047015;28;20140;-67
2023/06/14 03:51:52;;;;;;;45.45;10.18;;;;;;;;;;5045482;28;20398;-67
2023/06/14 03:54:22;;;;;;;62.97;12.30;;;;;;;;;;5043888;28;20113;-66
2023/06/14 03:56:52;;;;;;;63.70;10.93;;;;;;;;;;5045496;28;20486;-66
2023/06/14 03:59:19;;;;;;;103.65;14.68;;;;;;;;;;5043834;28;20417;-66
2023/06/14 04:01:47;;;;;;;46.05;10.18;;;;;;;;;;5043137;28;20064;-67
2023/06/14 04:04:18;;;;;;;38.63;9.65;;;;;;;;;;5051154;28;20098;-66
2023/06/14 04:06:48;;;;;;;74.00;13.18;;;;;;;;;;5047609;28;20048;-67
2023/06/14 04:09:15;;;;;;;53.92;10.75;;;;;;;;;;5064702;28;20056;-67
2023/06/14 04:11:41;;;;;;;72.90;11.68;;;;;;;;;;5043918;28;20040;-66
2023/06/14 04:14:08;;;;;;;33.97;10.80;;;;;;;;;;5043000;28;20223;-66
2023/06/14 04:16:35;;;;;;;34.10;9.38;;;;;;;;;;5045312;28;20131;-66
2023/06/14 04:19:02;;;;;;;52.03;11.25;;;;;;;;;;5043732;28;20049;-67
2023/06/14 04:21:29;;;;;;;47.63;10.65;;;;;;;;;;5049257;28;20043;-66
2023/06/14 04:24:01;;;;;;;60.78;12.57;;;;;;;;;;5050150;28;20045;-66
2023/06/14 04:26:29;;;;;;;63.47;12.00;;;;;;;;;;5041961;28;20045;-66
2023/06/14 04:29:01;;;;;;;47.30;11.02;;;;;;;;;;5045582;28;20041;-67
2023/06/14 04:31:33;;;;;;;58.90;15.68;;;;;;;;;;5044436;28;20064;-67
2023/06/14 04:34:01;;;;;;;43.35;10.85;;;;;;;;;;5031049;28;20094;-67
2023/06/14 04:36:27;;;;;;;72.68;12.65;;;;;;;;;;5043574;28;20045;-68
2023/06/14 04:38:54;;;;;;;37.65;9.70;;;;;;;;;;5031171;28;20044;-67
2023/06/14 04:41:30;;;;;;;39.60;10.70;;;;;;;;;;5050410;28;20107;-67
2023/06/14 04:44:01;;;;;;;46.65;11.05;;;;;;;;;;5059356;28;20048;-67
2023/06/14 04:46:32;;;;;;;45.25;11.02;;;;;;;;;;5040472;28;20063;-66
2023/06/14 04:49:01;;;;;;;74.15;12.20;;;;;;;;;;5045323;28;20047;-67
2023/06/14 04:51:33;;;;;;;27.70;9.32;;;;;;;;;;5042615;28;20040;-67
2023/06/14 04:54:01;;;;;;;43.83;11.32;;;;;;;;;;5044748;28;20056;-66
2023/06/14 04:56:30;;;;;;;55.47;11.93;;;;;;;;;;5042439;28;20140;-66
2023/06/14 04:58:57;;;;;;;36.40;10.57;;;;;;;;;;5060527;28;20051;-66
2023/06/14 05:01:24;;;;;;;77.45;12.32;;;;;;;;;;5060942;28;20044;-67
2023/06/14 05:03:51;;;;;;;40.83;10.70;;;;;;;;;;5050381;28;20144;-66
2023/06/14 05:06:17;;;;;;;36.08;10.68;;;;;;;;;;5050331;28;20570;-66
2023/06/14 05:08:45;;;;;;;77.00;12.82;;;;;;;;;;5047167;28;20041;-66
2023/06/14 05:11:12;;;;;;;51.58;10.40;;;;;;;;;;5049994;28;20510;-67
2023/06/14 05:13:40;;;;;;;36.55;9.90;;;;;;;;;;5065675;28;20144;-65
2023/06/14 05:16:09;;;;;;;41.85;11.02;;;;;;;;;;5040381;28;20053;-65
2023/06/14 05:18:37;;;;;;;82.97;13.68;;;;;;;;;;5066858;28;20098;-65
2023/06/14 05:21:05;;;;;;;46.05;10.48;;;;;;;;;;5044679;28;20486;-67
2023/06/14 05:23:32;;;;;;;81.78;13.07;;;;;;;;;;5059529;28;20557;-65
2023/06/14 05:25:59;;;;;;;38.97;10.38;;;;;;;;;;5056762;28;20475;-66
2023/06/14 05:28:26;;;;;;;45.15;10.38;;;;;;;;;;5060673;28;20044;-66
2023/06/14 05:30:52;;;;;;;49.97;9.98;;;;;;;;;;5064343;28;20398;-66
2023/06/14 05:33:19;;;;;;;105.90;14.40;;;;;;;;;;5042299;28;20462;-63
2023/06/14 05:35:46;;;;;;;71.25;13.63;;;;;;;;;;5061486;28;20506;-66
2023/06/14 05:38:13;;;;;;;26.55;9.35;;;;;;;;;;5063580;28;20071;-65
2023/06/14 05:40:40;;;;;;;66.57;12.07;;;;;;;;;;5059994;28;20072;-65
2023/06/14 05:43:06;;;;;;;58.55;12.23;;;;;;;;;;5066285;28;20045;-66
2023/06/14 05:45:33;;;;;;;52.88;13.07;;;;;;;;;;5051574;28;20037;-66
2023/06/14 05:48:00;;;;;;;47.13;13.73;;;;;;;;;;5065809;28;20517;-66
2023/06/14 05:50:26;;;;;;;39.28;13.48;;;;;;;;;;5052756;28;20068;-69
2023/06/14 05:52:53;;;;;;;37.25;14.05;;;;;;;;;;5070311;28;20044;-66
2023/06/14 05:55:20;;;;;;;39.10;14.50;;;;;;;;;;5063447;28;20604;-66
2023/06/14 05:57:48;;;;;;;49.33;14.43;;;;;;;;;;5065532;28;20049;-66
2023/06/14 06:00:15;;;;;;;48.97;13.85;;;;;;;;;;5027835;28;20041;-66
2023/06/14 06:02:43;;;;;;;102.75;15.43;;;;;;;;;;5066589;28;20071;-66
2023/06/14 06:05:12;;;;;;;26.60;9.85;;;;;;;;;;5064285;28;20052;-66
2023/06/14 06:07:44;;;;;;;58.97;11.40;;;;;;;;;;5067229;28;20045;-66
2023/06/14 06:10:11;;;;;;;57.60;11.43;;;;;;;;;;5046004;28;20045;-67
2023/06/14 06:12:38;;;;;;;50.70;11.15;;;;;;;;;;5063488;28;20044;-66
2023/06/14 06:15:04;;;;;;;31.48;8.88;;;;;;;;;;5047929;28;20044;-68
2023/06/14 06:17:31;;;;;;;54.75;10.13;;;;;;;;;;5067203;28;20033;-66
2023/06/14 06:20:18;;;;;;;46.75;10.52;;;;;;;;;;5047149;28;20052;-66
2023/06/14 06:22:44;;;;;;;41.67;9.93;;;;;;;;;;5049937;28;20052;-67
2023/06/14 06:25:11;;;;;;;39.45;9.40;;;;;;;;;;5064714;28;20036;-67
2023/06/14 06:27:40;;;;;;;42.00;9.52;;;;;;;;;;5064636;28;20049;-67
2023/06/14 06:30:07;;;;;;;74.68;11.88;;;;;;;;;;5062920;28;20052;-69
2023/06/14 06:32:33;;;;;;;90.82;13.90;;;;;;;;;;5062461;28;20410;-68
2023/06/14 06:35:00;;;;;;;32.45;9.20;;;;;;;;;;5065769;28;20049;-68
2023/06/14 06:37:27;;;;;;;53.42;11.65;;;;;;;;;;5066668;28;20063;-68
2023/06/14 06:39:53;;;;;;;52.92;11.52;;;;;;;;;;5066802;28;20044;-68
2023/06/14 06:42:20;;;;;;;44.55;10.50;;;;;;;;;;5064078;28;20051;-68
2023/06/14 06:44:49;;;;;;;62.83;13.00;;;;;;;;;;5045583;28;20040;-66
2023/06/14 06:47:16;;;;;;;43.10;10.95;;;;;;;;;;5046123;28;20041;-66
2023/06/14 06:49:43;;;;;;;55.03;11.30;;;;;;;;;;5062336;28;20056;-69
2023/06/14 06:52:10;;;;;;;42.95;11.60;;;;;;;;;;5043402;28;20486;-69
2023/06/14 06:54:37;;;;;;;52.28;13.15;;;;;;;;;;5060951;28;20126;-69
2023/06/14 06:57:03;;;;;;;43.65;10.90;;;;;;;;;;5063657;28;20040;-68
2023/06/14 06:59:30;;;;;;;48.00;11.98;;;;;;;;;;5065497;28;20041;-69
2023/06/14 07:01:57;;;;;;;46.80;13.80;;;;;;;;;;5052726;28;20064;-68
2023/06/14 07:04:24;;;;;;;44.40;11.13;;;;;;;;;;5062569;28;20041;-68
2023/06/14 07:06:51;;;;;;;61.38;12.05;;;;;;;;;;5063619;28;20048;-68
2023/06/14 07:09:19;;;;;;;56.10;11.68;;;;;;;;;;5061954;28;20049;-69
2023/06/14 07:11:46;;;;;;;80.38;12.77;;;;;;;;;;5047243;28;20045;-69
2023/06/14 07:14:13;;;;;;;50.75;10.90;;;;;;;;;;5061761;28;20048;-68
2023/06/14 07:16:41;;;;;;;35.83;10.30;;;;;;;;;;5030174;28;20115;-68
2023/06/14 07:19:09;;;;;;;69.97;11.95;;;;;;;;;;5068519;28;20078;-68
2023/06/14 07:21:39;;;;;;;76.43;12.23;;;;;;;;;;5061069;28;20110;-69
2023/06/14 07:24:07;;;;;;;49.58;10.98;;;;;;;;;;5045936;28;20486;-68
2023/06/14 07:26:35;;;;;;;84.82;12.48;;;;;;;;;;5062730;28;20075;-68
2023/06/14 07:29:02;;;;;;;55.63;11.05;;;;;;;;;;5047059;28;20093;-68
2023/06/14 07:31:28;;;;;;;50.42;13.35;;;;;;;;;;5062907;28;20486;-69
2023/06/14 07:33:55;;;;;;;35.90;9.30;;;;;;;;;;5064890;28;20050;-67
2023/06/14 07:36:22;;;;;;;57.05;10.32;;;;;;;;;;5065515;28;20044;-69
2023/06/14 07:38:48;;;;;;;78.22;11.70;;;;;;;;;;5060464;28;20497;-67
2023/06/14 07:41:15;;;;;;;52.47;10.27;;;;;;;;;;5043202;28;20548;-67
2023/06/14 07:43:42;;;;;;;36.60;9.07;;;;;;;;;;5064313;28;20080;-68
2023/06/14 07:46:11;;;;;;;42.05;8.73;;;;;;;;;;5065199;28;20068;-67
2023/06/14 07:48:38;;;;;;;41.90;8.88;;;;;;;;;;5063067;28;20044;-68
2023/06/14 07:51:05;;;;;;;63.97;10.20;;;;;;;;;;5062786;28;20098;-68
2023/06/14 07:53:32;;;;;;;43.63;8.45;;;;;;;;;;5057541;28;20140;-68
2023/06/14 07:55:59;;;;;;;53.42;9.55;;;;;;;;;;5063870;28;20051;-68
2023/06/14 07:58:26;;;;;;;34.08;7.63;;;;;;;;;;5065928;28;20636;-68
2023/06/14 08:00:52;;;;;;;63.83;9.70;;;;;;;;;;5057151;28;20040;-68
2023/06/14 08:03:19;;;;;;;50.70;8.55;;;;;;;;;;5061021;28;20099;-68
2023/06/14 08:05:46;;;;;;;64.93;9.85;;;;;;;;;;5044161;28;20067;-68
2023/06/14 08:08:13;;;;;;;54.42;8.77;;;;;;;;;;5064039;28;20041;-68
2023/06/14 08:10:39;;;;;;;38.97;7.15;;;;;;;;;;5059597;28;20694;-69
2023/06/14 08:13:06;;;;;;;48.05;7.55;;;;;;;;;;5059703;28;20045;-68
2023/06/14 08:15:33;;;;;;;47.95;6.63;;;;;;;;;;5062267;28;20115;-69
2023/06/14 08:18:01;;;;;;;38.30;6.55;;;;;;;;;;5065287;28;20051;-68
2023/06/14 08:20:30;;;;;;;49.35;6.95;;;;;;;;;;5063980;28;20152;-68
2023/06/14 08:22:57;;;;;;;55.08;7.57;;;;;;;;;;5061778;28;20052;-68
2023/06/14 08:25:23;;;;;;;38.92;6.78;;;;;;;;;;5059542;28;20098;-68
2023/06/14 08:27:52;;;;;;;56.17;7.72;;;;;;;;;;5066120;28;20057;-68
2023/06/14 08:30:19;;;;;;;35.83;6.70;;;;;;;;;;5054752;28;20429;-67
2023/06/14 08:32:46;;;;;;;92.22;10.95;;;;;;;;;;5061302;28;20127;-68
2023/06/14 08:35:19;;;;;;;51.22;7.35;;;;;;;;;;5045883;28;20107;-68
2023/06/14 08:37:46;;;;;;;43.08;8.30;;;;;;;;;;5061551;28;20396;-67
2023/06/14 08:40:17;;;;;;;40.50;7.90;;;;;;;;;;5062934;28;20049;-67
2023/06/14 08:42:45;;;;;;;55.45;8.90;;;;;;;;;;5056162;28;20037;-67
2023/06/14 08:45:12;;;;;;;56.13;7.90;;;;;;;;;;5062974;28;20058;-68
2023/06/14 08:47:39;;;;;;;68.00;9.38;;;;;;;;;;5044159;28;20139;-68
2023/06/14 08:50:08;;;;;;;45.40;8.07;;;;;;;;;;5063269;28;20425;-67
2023/06/14 08:53:02;;;;;;;65.20;9.27;;;;;;;;;;5064340;28;20049;-67
2023/06/14 08:55:30;;;;;;;48.10;9.23;;;;;;;;;;5062021;28;20048;-68
2023/06/14 08:58:03;;;;;;;52.22;9.40;;;;;;;;;;5063665;28;20043;-68
2023/06/14 09:00:32;;;;;;;58.25;8.75;;;;;;;;;;5061910;28;20048;-68
2023/06/14 09:02:59;;;;;;;51.83;8.57;;;;;;;;;;5061506;28;20048;-67
2023/06/14 09:05:27;;;;;;;45.78;8.50;;;;;;;;;;5060929;28;20124;-68
2023/06/14 09:08:00;;;;;;;65.80;10.30;;;;;;;;;;5065923;28;20036;-68
2023/06/14 09:10:35;;;;;;;39.03;7.93;;;;;;;;;;5048072;28;20642;-66
2023/06/14 09:13:02;;;;;;;71.75;10.60;;;;;;;;;;5062114;28;20118;-66
2023/06/14 09:15:30;;;;;;;43.97;8.32;;;;;;;;;;5061274;28;20059;-66
2023/06/14 09:17:57;;;;;;;58.65;9.43;;;;;;;;;;5069973;28;20048;-66
2023/06/14 09:20:24;;;;;;;47.38;9.15;;;;;;;;;;5045400;28;20446;-66
2023/06/14 09:22:51;;;;;;;71.88;10.15;;;;;;;;;;5066113;28;20041;-67
2023/06/14 09:25:18;;;;;;;54.72;9.00;;;;;;;;;;5031559;28;20059;-67
2023/06/14 09:28:06;;;;;;;54.28;8.60;;;;;;;;;;5067488;28;20045;-68
2023/06/14 09:30:32;;;;;;;52.28;8.57;;;;;;;;;;5068584;28;20065;-68
2023/06/14 09:32:59;;;;;;;66.05;9.65;;;;;;;;;;5055429;28;20047;-67
2023/06/14 09:35:30;;;;;;;78.50;10.80;;;;;;;;;;5064706;28;20585;-68
2023/06/14 09:37:57;;;;;;;65.03;8.73;;;;;;;;;;5050020;28;20508;-67
2023/06/14 09:40:24;;;;;;;51.72;8.55;;;;;;;;;;5063694;28;20486;-68
2023/06/14 09:42:51;;;;;;;47.47;7.07;;;;;;;;;;5052409;28;20554;-67
2023/06/14 09:45:21;;;;;;;46.90;7.72;;;;;;;;;;5064226;28;20056;-67
2023/06/14 09:47:51;;;;;;;88.10;10.88;;;;;;;;;;5064118;28;20525;-67
2023/06/14 09:50:31;;;;;;;50.92;7.60;;;;;;;;;;5063431;28;20517;-70
2023/06/14 09:53:02;;;;;;;55.60;9.07;;;;;;;;;;5062759;28;20045;-67
2023/06/14 09:55:30;;;;;;;63.92;8.77;;;;;;;;;;5065082;28;20745;-68
2023/06/14 09:57:57;;;;;;;56.83;8.70;;;;;;;;;;5065273;28;20049;-67
2023/06/14 10:00:25;;;;;;;47.88;8.20;;;;;;;;;;5066388;28;20047;-68
2023/06/14 10:02:54;;;;;;;61.42;8.70;;;;;;;;;;5063240;28;20064;-66
2023/06/14 10:05:21;;;;;;;31.73;7.40;;;;;;;;;;5067070;28;20123;-67
2023/06/14 10:07:51;;;;;;;56.88;9.70;;;;;;;;;;5066729;28;20524;-67
2023/06/14 10:10:18;;;;;;;81.13;11.50;;;;;;;;;;5063560;28;20114;-67
2023/06/14 10:12:46;;;;;;;48.15;7.90;;;;;;;;;;5061299;28;20482;-68
2023/06/14 10:15:36;;;;;;;80.43;9.95;;;;;;;;;;5057475;28;20057;-68
2023/06/14 10:18:07;;;;;;;59.90;8.27;;;;;;;;;;4982359;28;20582;-69
2023/06/14 10:20:45;;;;;;;49.80;7.90;;;;;;;;;;4981969;28;20066;-69
2023/06/14 10:23:19;;;;;;;60.25;8.32;;;;;;;;;;4985304;28;20137;-69
2023/06/14 10:25:49;;;;;;;123.32;13.18;;;;;;;;;;4981988;28;20042;-68
2023/06/14 10:28:19;;;;;;;48.92;7.30;;;;;;;;;;4981344;28;20464;-67
2023/06/14 10:31:03;;;;;;;54.30;7.35;;;;;;;;;;4982452;28;20508;-69
2023/06/14 10:33:31;;;;;;;31.05;6.47;;;;;;;;;;4985845;28;20495;-68
2023/06/14 10:36:08;;;;;;;63.90;7.93;;;;;;;;;;4981944;28;20437;-69
2023/06/14 10:38:36;;;;;;;51.58;7.60;;;;;;;;;;4983365;28;20583;-68
2023/06/14 10:41:03;;;;;;;72.30;8.80;;;;;;;;;;4991043;28;20065;-67
2023/06/14 10:43:30;;;;;;;37.30;6.22;;;;;;;;;;4982645;28;20059;-68
2023/06/14 10:46:17;;;;;;;70.43;7.50;;;;;;;;;;4969004;28;20097;-65
2023/06/14 10:48:44;;;;;;;50.50;7.30;;;;;;;;;;4981980;28;20137;-66
2023/06/14 10:51:21;;;;;;;38.10;6.15;;;;;;;;;;4974065;28;20054;-65
2023/06/14 10:53:48;;;;;;;93.63;10.52;;;;;;;;;;4966050;28;20082;-67
2023/06/14 10:56:27;;;;;;;79.43;9.45;;;;;;;;;;5058289;28;20060;-67
2023/06/14 10:58:53;;;;;;;46.33;6.22;;;;;;;;;;5067238;28;20127;-69
2023/06/14 11:01:23;;;;;;;77.60;8.95;;;;;;;;;;5043984;28;20067;-69
2023/06/14 11:03:53;;;;;;;42.15;6.63;;;;;;;;;;5066774;28;20041;-69
2023/06/14 11:06:23;;;;;;;58.55;7.35;;;;;;;;;;5063809;28;20128;-69
2023/06/14 11:09:02;;;;;;;110.00;12.30;;;;;;;;;;5046505;28;20532;-70
2023/06/14 11:11:31;;;;;;;52.80;8.50;;;;;;;;;;5064351;28;20037;-69
2023/06/14 11:13:59;;;;;;;47.88;8.65;;;;;;;;;;5059427;28;20611;-69
2023/06/14 11:16:27;;;;;;;52.65;12.85;;;;;;;;;;5068986;28;20124;-69
2023/06/14 11:18:54;;;;;;;35.63;17.35;;;;;;;;;;5047978;28;20040;-69
2023/06/14 11:21:21;;;;;;;52.10;27.02;;;;;;;;;;5067276;28;20105;-70
2023/06/14 11:23:51;;;;;;;117.85;61.20;;;;;;;;;;5063969;28;20049;-69
2023/06/14 11:26:34;;;;;;;49.75;34.47;;;;;;;;;;5044683;28;20080;-69
2023/06/14 11:29:01;;;;;;;116.13;106.63;;;;;;;;;;5050925;28;20040;-68
2023/06/14 11:31:28;;;;;;;59.50;24.85;;;;;;;;;;5062826;28;20072;-70
2023/06/14 11:33:56;;;;;;;41.35;9.43;;;;;;;;;;5044365;28;20379;-68
2023/06/14 11:36:26;;;;;;;37.72;8.30;;;;;;;;;;5062686;28;20052;-69
2023/06/14 11:39:03;;;;;;;44.80;11.05;;;;;;;;;;5061056;28;20051;-72
2023/06/14 11:41:37;;;;;;;56.58;12.48;;;;;;;;;;5063980;28;20110;-69
2023/06/14 11:44:03;;;;;;;42.05;14.98;;;;;;;;;;5065033;28;20090;-69
2023/06/14 11:46:30;;;;;;;53.72;18.83;;;;;;;;;;5060344;28;20131;-69
2023/06/14 11:48:57;;;;;;;41.35;22.92;;;;;;;;;;5066550;28;20102;-70
2023/06/14 11:51:24;;;;;;;109.35;99.30;;;;;;;;;;5062705;28;20084;-69
2023/06/14 11:53:51;;;;;;;74.07;22.48;;;;;;;;;;5045854;28;20055;-69
2023/06/14 11:56:18;;;;;;;47.15;14.13;;;;;;;;;;5063993;28;20037;-69
2023/06/14 11:58:44;;;;;;;39.22;9.25;;;;;;;;;;5061943;28;20051;-69
2023/06/14 12:01:16;;;;;;;48.00;8.48;;;;;;;;;;5063790;28;20055;-69
2023/06/14 12:03:50;;;;;;;57.65;16.17;;;;;;;;;;5065979;28;20037;-70
2023/06/14 12:06:25;;;;;;;47.33;10.80;;;;;;;;;;5047382;28;20060;-70
2023/06/14 12:08:55;;;;;;;76.70;11.88;;;;;;;;;;5062929;28;20074;-69
2023/06/14 12:11:21;;;;;;;64.65;10.10;;;;;;;;;;5063708;28;20064;-69
2023/06/14 12:13:48;;;;;;;40.25;11.77;;;;;;;;;;5047891;28;20052;-69
2023/06/14 12:16:15;;;;;;;40.58;13.93;;;;;;;;;;5057084;28;20059;-69
2023/06/14 12:18:43;;;;;;;35.67;12.00;;;;;;;;;;5063796;28;20045;-70
2023/06/14 12:21:11;;;;;;;45.13;16.73;;;;;;;;;;5044635;28;20055;-70
2023/06/14 12:23:47;;;;;;;72.70;27.88;;;;;;;;;;5068733;28;20040;-70
2023/06/14 12:26:18;;;;;;;55.22;33.85;;;;;;;;;;5069979;28;20051;-69
2023/06/14 12:28:46;;;;;;;42.88;19.38;;;;;;;;;;5048046;28;20064;-69
2023/06/14 12:31:13;;;;;;;35.80;15.18;;;;;;;;;;5047501;28;20062;-69
2023/06/14 12:33:41;;;;;;;69.25;30.45;;;;;;;;;;5066674;28;20148;-70
2023/06/14 12:36:10;;;;;;;55.28;30.73;;;;;;;;;;5068816;28;20552;-69
2023/06/14 12:38:37;;;;;;;73.90;40.92;;;;;;;;;;5069109;28;20040;-71
2023/06/14 12:41:07;;;;;;;46.45;33.83;;;;;;;;;;5069320;28;20029;-70
2023/06/14 12:43:34;;;;;;;50.95;20.05;;;;;;;;;;5050390;28;20048;-69
2023/06/14 12:46:01;;;;;;;69.90;24.48;;;;;;;;;;5068176;28;20040;-69
2023/06/14 12:48:29;;;;;;;46.08;23.48;;;;;;;;;;5066886;28;20106;-69
2023/06/14 12:50:59;;;;;;;98.53;25.15;;;;;;;;;;5068718;28;20047;-69
2023/06/14 12:53:26;;;;;;;58.55;20.13;;;;;;;;;;5066610;28;20076;-70
2023/06/14 12:55:53;;;;;;;44.30;20.02;;;;;;;;;;5067073;28;20071;-70
2023/06/14 12:58:20;;;;;;;53.25;20.00;;;;;;;;;;5068126;28;20139;-70
2023/06/14 13:00:47;;;;;;;52.40;16.17;;;;;;;;;;5068617;28;20043;-67
2023/06/14 13:03:14;;;;;;;58.30;14.48;;;;;;;;;;5068530;28;20052;-70
2023/06/14 13:05:41;;;;;;;82.65;15.10;;;;;;;;;;5051875;28;20068;-69
2023/06/14 13:08:08;;;;;;;37.58;9.32;;;;;;;;;;5069602;28;20136;-69
2023/06/14 13:10:35;;;;;;;63.30;10.73;;;;;;;;;;5050102;28;20479;-69
2023/06/14 13:13:02;;;;;;;56.40;7.95;;;;;;;;;;5067749;28;20123;-69
2023/06/14 13:15:29;;;;;;;42.00;7.20;;;;;;;;;;5067916;28;20037;-69
2023/06/14 13:17:56;;;;;;;57.28;6.90;;;;;;;;;;5066015;28;20601;-69
2023/06/14 13:20:22;;;;;;;50.30;7.28;;;;;;;;;;5067808;28;20071;-70
2023/06/14 13:22:50;;;;;;;32.83;4.97;;;;;;;;;;5068454;28;20146;-69
2023/06/14 13:25:16;;;;;;;55.58;6.28;;;;;;;;;;5065366;28;20127;-69
2023/06/14 13:27:43;;;;;;;52.67;5.80;;;;;;;;;;5050021;28;20067;-68
2023/06/14 13:30:10;;;;;;;46.20;5.65;;;;;;;;;;5066432;28;20181;-69
2023/06/14 13:32:37;;;;;;;61.00;6.65;;;;;;;;;;5067213;28;20041;-69
2023/06/14 13:35:07;;;;;;;116.45;8.23;;;;;;;;;;5068091;28;20044;-69
2023/06/14 13:37:54;;;;;;;47.38;5.55;;;;;;;;;;5050525;28;20040;-69
2023/06/14 13:40:22;;;;;;;50.17;6.22;;;;;;;;;;5067170;28;20049;-69
2023/06/14 13:42:53;;;;;;;39.15;5.63;;;;;;;;;;5060757;28;20033;-69
2023/06/14 13:45:19;;;;;;;51.17;5.72;;;;;;;;;;5066861;28;20045;-69
2023/06/14 13:47:48;;;;;;;110.60;9.93;;;;;;;;;;5060265;28;20091;-69
2023/06/14 13:50:16;;;;;;;36.47;4.63;;;;;;;;;;5063144;28;20445;-69
2023/06/14 13:52:43;;;;;;;74.47;8.90;;;;;;;;;;5059391;28;20098;-69
2023/06/14 13:55:09;;;;;;;22.83;3.63;;;;;;;;;;5064229;28;20044;-68
2023/06/14 13:57:36;;;;;;;42.05;4.97;;;;;;;;;;5058773;28;20052;-69
2023/06/14 14:00:03;;;;;;;28.05;3.65;;;;;;;;;;5043201;28;20044;-69
2023/06/14 14:02:37;;;;;;;79.40;7.68;;;;;;;;;;5061467;28;20080;-69
2023/06/14 14:05:05;;;;;;;94.05;9.95;;;;;;;;;;5063298;28;20040;-69
2023/06/14 14:07:31;;;;;;;56.63;5.97;;;;;;;;;;5059664;28;20056;-70
2023/06/14 14:09:58;;;;;;;74.30;7.65;;;;;;;;;;5065063;28;20398;-69
2023/06/14 14:12:25;;;;;;;34.53;4.57;;;;;;;;;;5064597;28;20067;-69
2023/06/14 14:14:52;;;;;;;93.38;13.60;;;;;;;;;;5067065;28;20055;-70
2023/06/14 14:17:19;;;;;;;72.97;13.38;;;;;;;;;;5045073;28;20041;-70
2023/06/14 14:19:45;;;;;;;48.03;10.40;;;;;;;;;;5065487;28;20048;-70
2023/06/14 14:22:12;;;;;;;60.30;10.90;;;;;;;;;;5041815;28;20088;-70
2023/06/14 14:24:39;;;;;;;54.45;6.65;;;;;;;;;;5047273;28;20040;-69
2023/06/14 14:27:07;;;;;;;46.60;5.38;;;;;;;;;;5063903;28;20056;-69
2023/06/14 14:29:35;;;;;;;66.55;6.75;;;;;;;;;;5064100;28;20118;-68